Time;durP1;ratioP1;P1;durP2;ratioP2;P2;SDS_P1;SDS_P2;PMS_P1;PMS_P2;Temp;Humidity;BMP_temperature;BMP_pressure;BME280_temperature;BME280_humidity;BME280_pressure;Samples;Min_cycle;Max_cycle;Signal;HPM_P1;HPM_P2
2023/09/01 00:01:16;;;;;;;10.63;6.58;;;;;;;11.73;95.99;100098.15;1791147;80;25534;-64
2023/09/01 00:03:44;;;;;;;13.78;7.12;;;;;;;11.72;95.96;100097.11;1791291;79;25457;-64
2023/09/01 00:06:15;;;;;;;9.35;7.17;;;;;;;11.71;96.71;100107.70;1791247;80;27470;-64
2023/09/01 00:08:43;;;;;;;10.25;7.03;;;;;;;11.69;96.50;100103.17;1791140;80;25567;-62
2023/09/01 00:11:11;;;;;;;8.60;6.75;;;;;;;11.67;96.59;100095.92;1791279;80;25408;-64
2023/09/01 00:13:39;;;;;;;13.38;7.28;;;;;;;11.67;96.88;100095.92;1791212;80;25562;-64
2023/09/01 00:16:07;;;;;;;8.28;6.37;;;;;;;11.65;96.94;100092.75;1791338;80;25523;-64
2023/09/01 00:18:36;;;;;;;12.75;7.25;;;;;;;11.65;97.23;100098.16;1791306;80;27352;-66
2023/09/01 00:21:04;;;;;;;8.93;7.08;;;;;;;11.63;97.17;100090.36;1791225;80;25579;-64
2023/09/01 00:23:33;;;;;;;10.80;7.03;;;;;;;11.61;96.88;100092.56;1791314;79;25551;-64
2023/09/01 00:26:01;;;;;;;10.88;7.58;;;;;;;11.59;97.10;100096.97;1796364;79;25593;-64
2023/09/01 00:28:29;;;;;;;9.28;7.60;;;;;;;11.59;97.28;100090.73;1797444;79;25129;-64
2023/09/01 00:31:00;;;;;;;9.33;6.92;;;;;;;11.57;97.14;100088.34;1797124;79;27493;-64
2023/09/01 00:33:31;;;;;;;10.08;6.65;;;;;;;11.57;97.22;100091.05;1797102;79;25738;-64
2023/09/01 00:36:00;;;;;;;11.33;7.65;;;;;;;11.56;96.81;100092.19;1797208;79;25601;-65
2023/09/01 00:38:29;;;;;;;7.92;6.70;;;;;;;11.55;97.03;100100.06;1797361;79;25534;-65
2023/09/01 00:40:55;;;;;;;11.80;7.20;;;;;;;11.52;96.79;100100.70;1797293;79;25471;-65
2023/09/01 00:43:21;;;;;;;10.65;7.58;;;;;;;11.50;97.01;100097.52;1797128;79;27464;-64
2023/09/01 00:45:49;;;;;;;8.68;7.40;;;;;;;11.48;97.10;100099.77;1797106;79;25383;-64
2023/09/01 00:48:18;;;;;;;10.25;7.50;;;;;;;11.49;97.10;100097.84;1797171;79;25509;-64
2023/09/01 00:50:50;;;;;;;10.25;6.92;;;;;;;11.48;97.17;100101.68;1797159;79;25677;-64
2023/09/01 00:53:19;;;;;;;8.95;6.47;;;;;;;11.47;97.24;100099.52;1797248;79;25394;-64
2023/09/01 00:55:48;;;;;;;8.58;6.67;;;;;;;11.46;96.88;100106.59;1797283;79;27441;-64
2023/09/01 00:58:16;;;;;;;9.35;7.22;;;;;;;11.45;96.99;100103.67;1797212;79;28906;-64
2023/09/01 01:00:42;;;;;;;9.98;6.92;;;;;;;11.44;97.02;100106.13;1797064;79;25372;-64
2023/09/01 01:03:13;;;;;;;8.83;7.20;;;;;;;11.42;96.97;100102.38;1797037;79;27640;-64
2023/09/01 01:05:57;;;;;;;10.70;7.03;;;;;;;11.40;97.11;100111.39;1797341;79;25527;-65
2023/09/01 01:08:51;;;;;;;10.13;7.50;;;;;;;11.37;96.92;100107.95;1796990;79;27381;-64
2023/09/01 01:11:32;;;;;;;8.68;6.40;;;;;;;11.33;96.65;100113.78;1797113;79;25384;-64
2023/09/01 01:14:04;;;;;;;9.98;7.45;;;;;;;11.29;96.63;100107.39;1781640;79;25620;-64
2023/09/01 01:16:33;;;;;;;10.68;7.40;;;;;;;11.26;96.72;100111.55;1765583;81;26274;-64
2023/09/01 01:19:06;;;;;;;12.07;7.37;;;;;;;11.24;96.94;100108.90;1765898;80;25483;-65
2023/09/01 01:21:36;;;;;;;9.38;7.35;;;;;;;11.21;97.07;100107.64;1764374;80;28221;-64
2023/09/01 01:24:07;;;;;;;13.98;8.30;;;;;;;11.19;97.03;100104.46;1765549;81;25431;-65
2023/09/01 01:26:38;;;;;;;9.18;7.83;;;;;;;11.17;97.28;100108.05;1765633;80;25616;-65
2023/09/01 01:29:07;;;;;;;9.58;7.90;;;;;;;11.14;96.92;100108.67;1765638;81;25523;-64
2023/09/01 01:31:35;;;;;;;11.48;8.08;;;;;;;11.12;97.16;100108.98;1765988;81;25552;-64
2023/09/01 01:34:19;;;;;;;12.53;8.35;;;;;;;11.11;97.40;100118.78;1765788;80;27593;-64
2023/09/01 01:36:54;;;;;;;11.28;8.00;;;;;;;11.09;97.31;100116.38;1764866;80;25604;-64
2023/09/01 01:39:26;;;;;;;11.12;7.60;;;;;;;11.06;97.41;100113.52;1764451;80;25589;-64
2023/09/01 01:42:01;;;;;;;8.90;7.97;;;;;;;11.03;97.43;100114.93;1765798;80;25676;-64
2023/09/01 01:44:35;;;;;;;12.20;7.60;;;;;;;11.00;97.51;100115.58;1765887;81;25624;-65
2023/09/01 01:47:07;;;;;;;9.20;7.62;;;;;;;10.98;97.56;100113.73;1765939;80;27478;-65
2023/09/01 01:49:35;;;;;;;12.45;8.33;;;;;;;10.95;97.76;100117.09;1765727;81;25690;-65
2023/09/01 01:52:04;;;;;;;13.40;8.15;;;;;;;10.95;97.97;100121.15;1765737;80;25421;-65
2023/09/01 01:54:33;;;;;;;11.75;8.30;;;;;;;10.92;98.03;100116.36;1765815;80;25488;-64
2023/09/01 01:57:01;;;;;;;15.77;7.60;;;;;;;10.91;97.98;100120.17;1766052;80;25421;-64
2023/09/01 01:59:30;;;;;;;13.15;8.65;;;;;;;10.90;98.15;100121.30;1765742;81;27981;-64
2023/09/01 02:01:59;;;;;;;10.75;8.48;;;;;;;10.89;98.36;100121.05;1765810;80;25361;-64
2023/09/01 02:04:25;;;;;;;11.85;8.60;;;;;;;10.89;98.40;100115.06;1765726;81;25441;-64
2023/09/01 02:06:51;;;;;;;11.95;7.92;;;;;;;10.90;98.36;100118.59;1765663;81;27772;-64
2023/09/01 02:09:17;;;;;;;13.03;7.95;;;;;;;10.88;98.16;100117.55;1765721;81;25357;-64
2023/09/01 02:11:46;;;;;;;11.18;7.70;;;;;;;10.88;98.31;100120.79;1765718;80;27543;-65
2023/09/01 02:14:13;;;;;;;11.25;8.45;;;;;;;10.86;98.33;100119.75;1765751;80;25635;-64
2023/09/01 02:16:41;;;;;;;13.32;8.30;;;;;;;10.83;98.41;100119.05;1765841;80;25549;-65
2023/09/01 02:19:11;;;;;;;10.68;8.03;;;;;;;10.82;98.77;100112.82;1765660;81;25524;-65
2023/09/01 02:21:38;;;;;;;12.18;7.90;;;;;;;10.80;98.60;100125.88;1765779;80;25567;-65
2023/09/01 02:24:08;;;;;;;14.55;7.95;;;;;;;10.78;98.93;100119.98;1765631;81;27537;-65
2023/09/01 02:26:34;;;;;;;11.03;7.92;;;;;;;10.79;99.12;100120.20;1765720;80;25530;-65
2023/09/01 02:29:05;;;;;;;10.58;7.67;;;;;;;10.81;99.41;100118.55;1765709;80;25446;-64
2023/09/01 02:31:31;;;;;;;10.88;8.55;;;;;;;10.81;99.47;100116.66;1765836;80;27602;-64
2023/09/01 02:33:57;;;;;;;9.50;7.80;;;;;;;10.81;99.54;100125.31;1765694;81;25610;-65
2023/09/01 02:36:34;;;;;;;9.58;7.53;;;;;;;10.81;99.67;100122.60;1765830;80;28451;-64
2023/09/01 02:39:05;;;;;;;12.53;7.42;;;;;;;10.81;99.79;100120.72;1765681;81;25785;-65
2023/09/01 02:41:34;;;;;;;11.40;7.62;;;;;;;10.82;99.84;100114.17;1765823;81;25365;-64
2023/09/01 02:44:01;;;;;;;13.20;8.15;;;;;;;10.82;99.93;100103.92;1765859;81;25602;-65
2023/09/01 02:46:28;;;;;;;11.73;7.10;;;;;;;10.83;100.00;100104.17;1765792;81;25413;-65
2023/09/01 02:48:54;;;;;;;10.58;7.90;;;;;;;10.84;100.00;100108.45;1765661;81;27471;-64
2023/09/01 02:51:21;;;;;;;11.40;7.35;;;;;;;10.83;100.00;100106.31;1765630;80;25380;-64
2023/09/01 02:53:49;;;;;;;15.32;7.90;;;;;;;10.83;100.00;100117.13;1765661;81;25514;-65
2023/09/01 02:56:17;;;;;;;14.73;8.10;;;;;;;10.82;99.95;100117.44;1765779;80;25500;-65
2023/09/01 02:58:46;;;;;;;9.35;6.85;;;;;;;10.82;100.00;100122.86;1765706;81;25453;-65
2023/09/01 03:01:13;;;;;;;9.70;7.65;;;;;;;10.80;100.00;100126.44;1765839;80;27492;-64
2023/09/01 03:03:42;;;;;;;10.82;7.58;;;;;;;10.80;100.00;100127.79;1765614;81;25379;-65
2023/09/01 03:06:10;;;;;;;11.28;7.47;;;;;;;10.76;100.00;100126.27;1765742;80;25468;-65
2023/09/01 03:08:39;;;;;;;9.47;7.23;;;;;;;10.77;100.00;100118.94;1765938;80;26315;-65
2023/09/01 03:11:07;;;;;;;12.25;7.53;;;;;;;10.87;100.00;100148.41;1765705;81;25554;-65
2023/09/01 03:13:35;;;;;;;12.28;7.42;;;;;;;10.76;100.00;100124.92;1765674;81;29666;-65
2023/09/01 03:16:05;;;;;;;8.80;7.05;;;;;;;10.76;100.00;100122.21;1765597;81;27377;-65
2023/09/01 03:18:32;;;;;;;9.08;7.30;;;;;;;10.78;100.00;100128.67;1765809;81;25601;-65
2023/09/01 03:21:11;;;;;;;11.10;7.62;;;;;;;10.80;100.00;100120.46;1765648;81;27682;-65
2023/09/01 03:23:39;;;;;;;10.82;8.18;;;;;;;10.81;100.00;100112.59;1765994;81;25470;-65
2023/09/01 03:26:06;;;;;;;8.75;7.08;;;;;;;10.86;100.00;100113.55;1765539;81;27709;-65
2023/09/01 03:28:35;;;;;;;9.48;7.40;;;;;;;10.86;100.00;100117.61;1765530;81;25521;-65
2023/09/01 03:31:02;;;;;;;11.25;6.70;;;;;;;10.87;100.00;100132.17;1765827;80;25403;-65
2023/09/01 03:33:33;;;;;;;9.98;8.13;;;;;;;10.89;100.00;100124.54;1765648;80;25651;-65
2023/09/01 03:36:07;;;;;;;9.33;6.95;;;;;;;10.91;100.00;100124.23;1765740;80;25452;-65
2023/09/01 03:38:37;;;;;;;7.30;6.42;;;;;;;10.92;100.00;100121.20;1765647;80;27459;-64
2023/09/01 03:41:09;;;;;;;8.83;6.95;;;;;;;10.93;100.00;100128.76;1765723;80;25431;-64
2023/09/01 03:43:37;;;;;;;12.18;7.05;;;;;;;10.91;100.00;100126.37;1765600;81;25617;-65
2023/09/01 03:46:05;;;;;;;7.85;5.87;;;;;;;10.90;99.96;100131.55;1765700;80;25510;-64
2023/09/01 03:48:35;;;;;;;11.08;7.15;;;;;;;10.90;99.87;100129.41;1765790;81;25609;-64
2023/09/01 03:51:15;;;;;;;12.90;7.33;;;;;;;10.89;99.96;100116.98;1765515;80;27493;-64
2023/09/01 03:53:45;;;;;;;11.25;7.00;;;;;;;10.89;99.95;100123.75;1764606;80;27380;-64
2023/09/01 03:56:17;;;;;;;10.48;6.70;;;;;;;10.88;99.84;100131.08;1776465;80;25648;-65
2023/09/01 03:58:46;;;;;;;9.15;6.60;;;;;;;10.89;99.92;100131.87;1765751;81;25552;-65
2023/09/01 04:01:14;;;;;;;9.45;7.15;;;;;;;10.90;100.00;100132.91;1765827;81;25392;-65
2023/09/01 04:03:45;;;;;;;13.10;7.55;;;;;;;10.92;99.96;100139.36;1765627;81;28025;-65
2023/09/01 04:06:15;;;;;;;8.90;7.22;;;;;;;10.93;100.00;100133.64;1765556;80;25750;-64
2023/09/01 04:08:41;;;;;;;8.60;6.75;;;;;;;10.92;99.93;100128.53;1765670;80;25498;-65
2023/09/01 04:11:11;;;;;;;9.98;7.20;;;;;;;10.91;99.64;100130.98;1765583;81;25543;-65
2023/09/01 04:13:39;;;;;;;9.85;7.05;;;;;;;10.90;99.67;100129.41;1765659;81;25448;-65
2023/09/01 04:16:07;;;;;;;8.90;6.72;;;;;;;10.90;99.82;100129.41;1765553;81;26522;-65
2023/09/01 04:18:35;;;;;;;8.90;6.10;;;;;;;10.90;99.95;100123.44;1765571;80;25604;-65
2023/09/01 04:21:03;;;;;;;9.73;6.45;;;;;;;10.91;100.00;100120.95;1765637;80;25201;-62
2023/09/01 04:23:31;;;;;;;7.95;6.40;;;;;;;10.95;100.00;100123.29;1765583;80;25547;-62
2023/09/01 04:26:00;;;;;;;8.98;6.45;;;;;;;10.98;100.00;100125.91;1763674;81;32347;-62
2023/09/01 04:28:27;;;;;;;11.25;6.58;;;;;;;11.02;100.00;100132.30;1759896;81;27495;-65
2023/09/01 04:30:53;;;;;;;7.90;6.22;;;;;;;11.06;100.00;100131.11;1759845;81;25436;-65
2023/09/01 04:33:19;;;;;;;9.53;7.17;;;;;;;11.07;100.00;100141.63;1759895;81;25464;-65
2023/09/01 04:36:00;;;;;;;8.43;6.03;;;;;;;11.10;100.00;100142.34;1759902;81;26020;-66
2023/09/01 04:38:26;;;;;;;6.97;5.70;;;;;;;11.12;100.00;100144.18;1759991;81;25607;-67
2023/09/01 04:41:02;;;;;;;12.28;7.62;;;;;;;11.14;100.00;100154.70;1759866;81;27515;-65
2023/09/01 04:43:29;;;;;;;9.65;6.58;;;;;;;11.16;100.00;100151.11;1759779;81;25522;-64
2023/09/01 04:45:58;;;;;;;8.03;7.03;;;;;;;11.18;100.00;100147.52;1759862;81;25645;-65
2023/09/01 04:48:30;;;;;;;9.00;6.47;;;;;;;11.21;100.00;100145.55;1759888;81;25512;-65
2023/09/01 04:51:00;;;;;;;9.48;6.50;;;;;;;11.28;100.00;100149.13;1760079;81;25400;-66
2023/09/01 04:53:25;;;;;;;8.65;6.95;;;;;;;11.34;100.00;100155.97;1760114;81;28008;-65
2023/09/01 04:55:54;;;;;;;10.90;6.87;;;;;;;11.40;100.00;100141.17;1759956;81;25605;-65
2023/09/01 04:58:22;;;;;;;9.20;6.47;;;;;;;11.45;100.00;100141.58;1760016;81;25531;-65
2023/09/01 05:00:59;;;;;;;7.95;6.00;;;;;;;11.49;100.00;100141.99;1760020;81;26205;-65
2023/09/01 05:03:26;;;;;;;8.73;6.35;;;;;;;11.52;100.00;100137.27;1760044;81;25407;-67
2023/09/01 05:05:57;;;;;;;8.43;6.08;;;;;;;11.56;100.00;100144.20;1722101;79;27566;-64
2023/09/01 05:08:24;;;;;;;8.38;6.37;;;;;;;11.58;100.00;100137.36;1677565;84;25768;-64
2023/09/01 05:10:53;;;;;;;8.50;6.20;;;;;;;11.63;100.00;100135.05;1677363;84;25414;-64
2023/09/01 05:13:23;;;;;;;6.87;5.90;;;;;;;11.69;100.00;100139.74;1677189;85;26434;-64
2023/09/01 05:15:49;;;;;;;8.63;6.47;;;;;;;11.75;100.00;100144.68;1677268;85;25648;-64
2023/09/01 05:18:18;;;;;;;9.03;6.40;;;;;;;11.80;100.00;100149.14;1677427;84;27506;-64
2023/09/01 05:20:48;;;;;;;9.15;6.30;;;;;;;11.85;100.00;100148.98;1677575;85;25628;-64
2023/09/01 05:23:16;;;;;;;11.05;6.22;;;;;;;11.90;100.00;100153.42;1677421;85;25386;-64
2023/09/01 05:25:43;;;;;;;8.65;5.70;;;;;;;11.95;100.00;100149.22;1677266;85;27741;-64
2023/09/01 05:28:10;;;;;;;10.03;6.67;;;;;;;11.99;100.00;100155.61;1677432;85;25459;-64
2023/09/01 05:30:37;;;;;;;9.18;6.62;;;;;;;12.06;100.00;100149.13;1677376;85;27761;-64
2023/09/01 05:33:04;;;;;;;11.60;6.75;;;;;;;12.11;100.00;100148.17;1650000;85;25600;-64
2023/09/01 05:35:35;;;;;;;8.08;6.72;;;;;;;12.19;100.00;100144.65;1677489;85;25647;-64
2023/09/01 05:38:02;;;;;;;7.83;6.05;;;;;;;12.21;100.00;100147.83;1677453;85;26080;-64
2023/09/01 05:40:28;;;;;;;7.85;6.15;;;;;;;12.30;100.00;100151.30;1677389;85;25568;-64
2023/09/01 05:42:54;;;;;;;12.50;7.22;;;;;;;12.38;100.00;100151.05;1677367;85;27538;-64
2023/09/01 05:45:20;;;;;;;11.68;6.42;;;;;;;12.48;100.00;100147.98;1677279;85;25590;-64
2023/09/01 05:47:46;;;;;;;9.78;5.83;;;;;;;12.58;100.00;100147.37;1677307;85;25546;-64
2023/09/01 05:50:13;;;;;;;7.80;5.72;;;;;;;12.62;100.00;100149.69;1677339;84;25665;-67
2023/09/01 05:52:40;;;;;;;9.48;7.25;;;;;;;12.68;100.00;100162.75;1677540;85;25410;-62
2023/09/01 05:55:08;;;;;;;14.38;10.50;;;;;;;12.81;100.00;100162.27;1677370;84;27389;-63
2023/09/01 05:57:35;;;;;;;12.75;7.17;;;;;;;12.89;100.00;100176.94;1677275;85;27355;-66
2023/09/01 06:00:01;;;;;;;8.00;6.03;;;;;;;13.00;100.00;100184.14;1677396;85;25575;-70
2023/09/01 06:02:27;;;;;;;7.37;6.12;;;;;;;13.13;100.00;100183.65;1677156;84;26122;-70
2023/09/01 06:04:54;;;;;;;7.05;6.00;;;;;;;13.31;100.00;100184.35;1677300;84;25556;-67
2023/09/01 06:07:20;;;;;;;8.28;5.78;;;;;;;13.51;100.00;100186.89;1674401;85;27465;-68
2023/09/01 06:09:46;;;;;;;7.37;5.60;;;;;;;13.65;100.00;100188.77;1674037;85;25228;-69
2023/09/01 06:12:14;;;;;;;7.58;6.15;;;;;;;13.76;100.00;100188.60;1674148;85;25582;-68
2023/09/01 06:14:42;;;;;;;10.30;6.00;;;;;;;13.87;100.00;100198.50;1674130;85;25526;-64
2023/09/01 06:17:08;;;;;;;7.17;5.33;;;;;;;13.99;100.00;100199.11;1674099;85;25549;-65
2023/09/01 06:19:34;;;;;;;5.92;4.95;;;;;;;14.04;100.00;100190.75;1674113;85;27582;-65
2023/09/01 06:22:00;;;;;;;6.10;5.47;;;;;;;14.13;100.00;100187.39;1674034;85;25587;-65
2023/09/01 06:24:26;;;;;;;6.37;5.10;;;;;;;14.28;100.00;100187.30;1674043;85;25513;-65
2023/09/01 06:26:54;;;;;;;6.92;4.20;;;;;;;14.46;100.00;100189.28;1674020;85;27870;-67
2023/09/01 06:29:21;;;;;;;5.62;3.75;;;;;;;14.61;99.50;100185.69;1674051;85;25490;-67
2023/09/01 06:31:47;;;;;;;6.42;4.70;;;;;;;14.77;98.49;100192.64;1674074;85;27484;-67
2023/09/01 06:34:13;;;;;;;7.35;4.00;;;;;;;14.93;98.54;100192.17;1674078;85;25466;-68
2023/09/01 06:36:39;;;;;;;4.45;3.70;;;;;;;15.06;96.60;100188.31;1674148;85;25708;-65
2023/09/01 06:39:06;;;;;;;5.20;3.83;;;;;;;15.19;96.30;100197.28;1674188;85;25574;-66
2023/09/01 06:41:33;;;;;;;5.03;3.62;;;;;;;15.39;96.64;100192.84;1674265;85;25387;-65
2023/09/01 06:44:00;;;;;;;4.85;2.83;;;;;;;15.59;94.96;100201.18;1674038;85;27562;-66
2023/09/01 06:46:29;;;;;;;5.67;3.02;;;;;;;15.78;94.18;100198.67;1674063;85;25331;-66
2023/09/01 06:48:56;;;;;;;3.92;3.10;;;;;;;15.86;92.31;100204.52;1673266;85;25647;-66
2023/09/01 06:51:22;;;;;;;3.83;2.87;;;;;;;16.00;92.96;100197.88;1673958;85;25758;-66
2023/09/01 06:53:48;;;;;;;5.33;2.60;;;;;;;16.16;93.11;100202.81;1674148;85;25585;-66
2023/09/01 06:56:14;;;;;;;4.70;2.72;;;;;;;16.32;92.14;100208.30;1674079;85;27562;-66
2023/09/01 06:58:41;;;;;;;3.37;2.85;;;;;;;16.49;91.37;100208.55;1673906;85;25550;-66
2023/09/01 07:01:11;;;;;;;2.83;2.60;;;;;;;16.60;90.18;100204.71;1674107;85;25624;-66
2023/09/01 07:03:39;;;;;;;6.97;4.55;;;;;;;16.67;89.69;100213.10;1674100;85;25908;-66
2023/09/01 07:06:06;;;;;;;8.50;4.05;;;;;;;16.83;89.85;100207.63;1672033;85;25463;-66
2023/09/01 07:08:35;;;;;;;8.88;5.00;;;;;;;17.05;89.49;100211.70;1666759;86;29661;-66
2023/09/01 07:11:10;;;;;;;3.17;2.30;;;;;;;17.35;89.60;100209.84;1666730;86;25582;-66
2023/09/01 07:13:38;;;;;;;3.00;2.20;;;;;;;17.52;86.56;100212.72;1666778;86;25566;-62
2023/09/01 07:16:06;;;;;;;5.03;2.45;;;;;;;17.84;86.38;100216.72;1666762;86;25534;-61
2023/09/01 07:18:34;;;;;;;7.05;1.85;;;;;;;17.87;81.23;100221.50;1666758;86;25696;-64
2023/09/01 07:21:02;;;;;;;4.80;1.57;;;;;;;17.85;82.04;100220.46;1666720;86;27650;-65
2023/09/01 07:23:30;;;;;;;2.95;1.85;;;;;;;18.03;81.99;100222.78;1666719;86;25680;-62
2023/09/01 07:26:00;;;;;;;10.08;8.35;;;;;;;18.28;80.71;100220.53;1666790;86;25407;-62
2023/09/01 07:28:27;;;;;;;9.05;5.58;;;;;;;18.47;79.60;100215.59;1666896;86;25584;-66
2023/09/01 07:30:53;;;;;;;4.87;1.77;;;;;;;18.65;77.50;100218.06;1666780;86;25811;-65
2023/09/01 07:33:21;;;;;;;2.27;1.25;;;;;;;18.73;77.19;100222.28;1666828;86;27964;-66
2023/09/01 07:35:52;;;;;;;1.90;1.45;;;;;;;19.01;77.17;100224.14;1666600;84;25412;-65
2023/09/01 07:38:19;;;;;;;1.67;1.45;;;;;;;19.15;74.75;100231.80;1636762;86;25695;-65
2023/09/01 07:40:48;;;;;;;1.90;1.50;;;;;;;19.27;73.13;100229.42;1666778;86;25665;-65
2023/09/01 07:43:17;;;;;;;2.35;1.55;;;;;;;19.46;73.95;100225.80;1666604;84;25684;-67
2023/09/01 07:45:45;;;;;;;2.98;1.72;;;;;;;19.74;72.23;100224.02;1666698;85;28163;-66
2023/09/01 07:48:11;;;;;;;4.35;1.52;;;;;;;20.01;72.54;100222.59;1635900;86;25744;-66
2023/09/01 07:50:38;;;;;;;1.72;1.25;;;;;;;20.26;70.68;100223.42;1666726;86;25425;-67
2023/09/01 07:53:04;;;;;;;3.80;1.50;;;;;;;20.38;69.73;100231.98;1666653;86;25722;-67
2023/09/01 07:55:30;;;;;;;3.15;1.37;;;;;;;20.63;69.11;100227.55;1666799;85;25602;-61
2023/09/01 07:57:59;;;;;;;3.60;1.50;;;;;;;20.75;67.68;100236.09;1666681;86;28164;-63
2023/09/01 08:00:26;;;;;;;1.22;1.12;;;;;;;20.78;66.27;100224.34;1666525;86;25604;-69
2023/09/01 08:02:53;;;;;;;2.90;1.75;;;;;;;20.82;64.86;100225.18;1666663;86;25610;-66
2023/09/01 08:05:23;;;;;;;2.45;1.82;;;;;;;20.88;64.66;100234.64;1666648;86;25840;-66
2023/09/01 08:08:02;;;;;;;2.75;1.42;;;;;;;20.82;62.63;100228.50;1675241;85;25785;-66
2023/09/01 08:20:26;;;;;;;68.50;64.43;;;;;;;20.94;62.30;100235.06;1894237;75;25533;-70
2023/09/01 08:22:53;;;;;;;66.75;62.95;;;;;;;21.18;61.93;100232.88;1862292;77;25647;-70
2023/09/01 08:25:19;;;;;;;64.55;60.78;;;;;;;21.33;59.98;100231.02;1862708;77;27471;-67
2023/09/01 08:27:45;;;;;;;64.70;60.67;;;;;;;21.45;59.37;100230.13;1863163;77;25587;-68
2023/09/01 08:30:13;;;;;;;67.30;63.35;;;;;;;21.32;56.75;100232.18;1863252;77;25428;-69
2023/09/01 08:32:42;;;;;;;62.73;59.33;;;;;;;21.15;57.31;100231.70;1863483;77;25390;-69
2023/09/01 08:35:09;;;;;;;;;;;;;;;8.05;58.69;98213.73;1866034;77;25599;-66
2023/09/01 08:37:35;;;;;;;65.95;62.25;;;;;;;21.32;56.80;100234.37;1863260;77;27643;-66
2023/09/01 08:40:05;;;;;;;64.10;60.25;;;;;;;21.36;58.08;100224.76;1863119;77;25354;-66
2023/09/01 08:42:31;;;;;;;62.65;59.15;;;;;;;21.67;57.79;100242.63;1863211;77;25367;-66
2023/09/01 08:44:58;;;;;;;4.58;4.37;;;;;;;;;;1831999;77;25562;-67
2023/09/01 08:47:26;;;;;;;64.58;60.50;;;;;;;;;;1863391;77;25597;-62
2023/09/01 08:49:53;;;;;;;74.92;69.40;;;;;;;;;;1863236;77;27178;-63
2023/09/01 08:52:20;;;;;;;67.47;63.50;;;;;;;;;;1863279;77;25367;-62
2023/09/01 08:54:46;;;;;;;68.65;64.85;;;;;;;;;;1863233;77;25372;-64
2023/09/01 08:57:12;;;;;;;69.60;65.50;;;;;;;;;;1863166;77;25380;-63
2023/09/01 08:59:38;;;;;;;63.80;60.15;;;;;;;;;;1863162;77;25329;-63
2023/09/01 09:02:05;;;;;;;64.57;60.97;;;;;;;;;;1863211;77;28125;-65
2023/09/01 09:04:32;;;;;;;65.15;61.35;;;;;;;;;;1863149;77;25770;-61
2023/09/01 09:07:15;;;;;;;65.17;61.58;;;;;;;;;;1863229;77;25519;-62
2023/09/01 09:09:53;;;;;;;63.70;60.28;;;;;;;;;;1863146;77;25818;-62
2023/09/01 09:12:22;;;;;;;64.92;61.42;;;;;;;;;;1863123;77;25455;-63
2023/09/01 09:14:52;;;;;;;62.55;59.20;;;;;;;;;;1862970;77;27657;-62
2023/09/01 09:17:20;;;;;;;62.17;58.80;;;;;;;;;;1863143;77;25603;-65
2023/09/01 09:19:53;;;;;;;63.40;59.83;;;;;;;;;;1862234;77;25463;-65
2023/09/01 09:22:20;;;;;;;60.25;57.10;;;;;;;;;;1862133;77;25368;-67
2023/09/01 09:24:46;;;;;;;61.70;58.30;;;;;;;;;;1863224;77;25542;-67
2023/09/01 09:27:17;;;;;;;61.20;58.00;;;;;;;;;;1863189;77;27540;-65
2023/09/01 09:29:45;;;;;;;4.05;3.95;;;;;;;;;;1863000;77;25389;-65
2023/09/01 09:32:19;;;;;;;6.53;6.28;;;;;;;;;;1862709;77;25538;-64
2023/09/01 09:35:19;;;;;;;61.18;57.78;;;;;;;;;;1862555;77;25522;-65
2023/09/01 09:37:42;;;;;;;62.47;58.87;;;;;;;;;;1862388;77;25555;-60
2023/09/01 09:40:16;;;;;;;64.42;60.83;;;;;;;;;;1862495;77;27451;-68
2023/09/01 09:42:44;;;;;;;63.80;60.35;;;;;;;;;;1862615;77;25661;-67
2023/09/01 09:45:20;;;;;;;64.70;61.28;;;;;;;;;;1862715;77;25497;-66
2023/09/01 09:47:50;;;;;;;62.88;59.18;;;;;;;;;;1862629;77;25464;-66
2023/09/01 09:50:18;;;;;;;63.60;59.95;;;;;;;;;;1862942;77;25525;-67
2023/09/01 09:52:52;;;;;;;65.32;61.68;;;;;;;;;;1862632;77;27537;-68
2023/09/01 09:55:30;;;;;;;65.25;61.80;;;;;;;;;;1862265;77;25378;-67
2023/09/01 09:58:05;;;;;;;63.23;59.83;;;;;;;;;;1860426;77;26008;-61
2023/09/01 10:00:37;;;;;;;64.87;61.37;;;;;;;;;;1862434;77;25441;-69
2023/09/01 10:03:07;;;;;;;64.10;60.52;;;;;;;;;;1862570;77;25618;-65
2023/09/01 10:05:35;;;;;;;62.30;58.98;;;;;;;;;;1862546;77;27657;-63
2023/09/01 10:08:04;;;;;;;63.65;60.05;;;;;;;;;;1862657;77;25906;-64
2023/09/01 10:10:37;;;;;;;63.45;59.95;;;;;;;;;;1862499;77;25406;-65
2023/09/01 10:13:06;;;;;;;44.83;42.38;;;;;;;;;;1861167;77;25438;-63
2023/09/01 10:15:35;;;;;;;62.78;59.20;;;;;;;;;;1861712;77;25596;-62
2023/09/01 10:18:06;;;;;;;62.25;58.87;;;;;;;;;;1862636;77;27492;-65
2023/09/01 10:20:35;;;;;;;62.62;59.20;;;;;;;;;;1862588;76;25887;-63
2023/09/01 10:23:04;;;;;;;77.90;72.40;;;;;;;;;;1865528;76;25419;-62
2023/09/01 10:25:31;;;;;;;63.50;60.00;;;;;;;;;;1865619;76;27368;-62
2023/09/01 10:28:04;;;;;;;61.37;58.13;;;;;;;;;;1865895;76;25509;-62
2023/09/01 10:30:35;;;;;;;60.75;57.35;;;;;;;;;;1865534;76;28405;-61
2023/09/01 10:33:24;;;;;;;61.88;58.68;;;;;;;;;;1865709;76;25449;-61
2023/09/01 10:35:53;;;;;;;60.63;57.40;;;;;;;;;;1865497;76;25566;-60
2023/09/01 10:38:34;;;;;;;60.92;57.62;;;;;;;;;;1865106;76;25801;-63
2023/09/01 10:41:02;;;;;;;65.45;62.00;;;;;;;;;;1864079;76;25717;-61
2023/09/01 10:43:38;;;;;;;61.50;58.20;;;;;;;;;;1864630;76;28844;-64
2023/09/01 10:46:17;;;;;;;63.85;60.23;;;;;;;;;;1865299;76;25645;-62
2023/09/01 10:48:54;;;;;;;63.08;59.75;;;;;;;;;;1865494;76;25475;-63
2023/09/01 10:51:27;;;;;;;63.20;59.73;;;;;;;;;;1865493;76;25427;-63
2023/09/01 10:54:02;;;;;;;62.38;58.95;;;;;;;;;;1865600;76;25451;-63
2023/09/01 10:56:29;;;;;;;64.42;61.00;;;;;;;;;;1864561;76;27669;-62
2023/09/01 10:58:58;;;;;;;61.35;57.48;;;;;;;;;;1865542;76;25566;-64
2023/09/01 11:01:31;;;;;;;61.77;58.58;;;;;;;;;;1836805;76;25617;-63
2023/09/01 11:04:24;;;;;;;63.25;59.90;;;;;;;;;;1865508;76;25518;-63
2023/09/01 11:07:03;;;;;;;62.85;59.05;;;;;;;;;;1865627;76;25534;-64
2023/09/01 11:09:35;;;;;;;62.93;59.48;;;;;;;;;;1865571;76;28141;-63
2023/09/01 11:12:04;;;;;;;63.92;60.43;;;;;;;;;;1865337;76;25434;-62
2023/09/01 11:14:32;;;;;;;61.18;57.95;;;;;;;;;;1865647;76;25512;-63
2023/09/01 11:17:01;;;;;;;62.30;59.00;;;;;;;;;;1865745;76;25381;-63
2023/09/01 11:19:27;;;;;;;64.10;60.60;;;;;;;;;;1865489;76;25591;-64
2023/09/01 11:21:53;;;;;;;64.10;60.40;;;;;;;;;;1865514;76;27540;-63
2023/09/01 11:24:24;;;;;;;63.07;59.57;;;;;;;;;;1865421;76;28624;-63
2023/09/01 11:26:52;;;;;;;62.50;59.20;;;;;;;;;;1865458;76;25647;-64
2023/09/01 11:29:20;;;;;;;64.80;61.30;;;;;;;;;;1865584;76;25531;-64
2023/09/01 11:31:46;;;;;;;63.23;59.75;;;;;;;;;;1865550;76;25376;-65
2023/09/01 11:34:15;;;;;;;62.17;58.90;;;;;;;;;;1865548;76;28119;-60
2023/09/01 11:36:49;;;;;;;63.85;60.38;;;;;;;;;;1865603;76;25417;-63
2023/09/01 11:39:15;;;;;;;64.85;61.35;;;;;;;;;;1865351;76;25472;-62
2023/09/01 11:41:42;;;;;;;63.40;60.00;;;;;;;;;;1865428;76;34665;-62
2023/09/01 11:44:10;;;;;;;65.87;62.13;;;;;;;;;;1836688;76;25600;-62
2023/09/01 11:46:38;;;;;;;63.50;60.03;;;;;;;;;;1865479;76;27500;-63
2023/09/01 11:49:06;;;;;;;65.87;62.27;;;;;;;;;;1865456;76;25373;-63
2023/09/01 11:51:38;;;;;;;62.13;58.73;;;;;;;;;;1865598;76;25370;-62
2023/09/01 11:54:08;;;;;;;62.20;58.78;;;;;;;;;;1865559;76;25627;-64
2023/09/01 11:56:36;;;;;;;64.40;60.83;;;;;;;;;;1865558;76;25579;-64
2023/09/01 11:59:03;;;;;;;62.50;59.20;;;;;;;;;;1865525;76;27373;-64
2023/09/01 12:01:41;;;;;;;65.17;61.73;;;;;;;;;;1865441;76;25488;-63
2023/09/01 12:04:10;;;;;;;63.17;59.83;;;;;;;;;;1865493;76;25609;-63
2023/09/01 12:06:46;;;;;;;63.20;59.90;;;;;;;;;;1865491;76;25582;-63
2023/09/01 12:09:16;;;;;;;65.10;61.63;;;;;;;;;;1865554;76;25464;-63
2023/09/01 12:11:56;;;;;;;64.17;60.83;;;;;;;;;;1865551;76;28545;-63
2023/09/01 12:14:29;;;;;;;63.90;60.15;;;;;;;;;;1864739;76;25524;-63
2023/09/01 12:17:00;;;;;;;63.10;59.75;;;;;;;;;;1865502;76;25374;-63
2023/09/01 12:19:29;;;;;;;64.40;60.73;;;;;;;;;;1865376;76;25593;-62
2023/09/01 12:21:59;;;;;;;62.98;59.45;;;;;;;;;;1837493;76;25613;-62
2023/09/01 12:24:26;;;;;;;65.15;61.65;;;;;;;;;;1865533;76;28019;-65